sensor_id;sensor_type;location;lat;lon;timestamp;temperature;humidity
10390;DHT22;5241;47.830;12.972;2022-09-01T00:01:42;13.80;99.90
10390;DHT22;5241;47.830;12.972;2022-09-01T00:04:11;13.70;99.90
10390;DHT22;5241;47.830;12.972;2022-09-01T00:06:37;13.60;99.90
10390;DHT22;5241;47.830;12.972;2022-09-01T00:09:07;13.50;99.90
10390;DHT22;5241;47.830;12.972;2022-09-01T00:11:34;13.50;99.90
10390;DHT22;5241;47.830;12.972;2022-09-01T00:14:01;13.40;99.90
10390;DHT22;5241;47.830;12.972;2022-09-01T00:16:28;13.40;99.90
10390;DHT22;5241;47.830;12.972;2022-09-01T00:18:55;13.40;99.90
10390;DHT22;5241;47.830;12.972;2022-09-01T00:21:24;13.30;99.90
10390;DHT22;5241;47.830;12.972;2022-09-01T00:23:50;13.30;99.90
10390;DHT22;5241;47.830;12.972;2022-09-01T00:26:16;13.30;99.90
10390;DHT22;5241;47.830;12.972;2022-09-01T00:28:42;13.30;99.90
10390;DHT22;5241;47.830;12.972;2022-09-01T00:31:08;13.30;99.90
10390;DHT22;5241;47.830;12.972;2022-09-01T00:33:35;13.20;99.90
10390;DHT22;5241;47.830;12.972;2022-09-01T00:36:01;13.10;99.90
10390;DHT22;5241;47.830;12.972;2022-09-01T00:38:27;13.10;99.90
10390;DHT22;5241;47.830;12.972;2022-09-01T00:40:53;13.00;99.90
10390;DHT22;5241;47.830;12.972;2022-09-01T00:46:24;13.10;99.90
10390;DHT22;5241;47.830;12.972;2022-09-01T00:51:25;13.10;99.90
10390;DHT22;5241;47.830;12.972;2022-09-01T00:53:51;13.10;99.90
10390;DHT22;5241;47.830;12.972;2022-09-01T00:56:18;13.10;99.90
10390;DHT22;5241;47.830;12.972;2022-09-01T00:58:43;13.00;99.90
10390;DHT22;5241;47.830;12.972;2022-09-01T01:01:10;13.00;99.90
10390;DHT22;5241;47.830;12.972;2022-09-01T01:03:36;13.10;99.90
10390;DHT22;5241;47.830;12.972;2022-09-01T01:06:05;13.10;99.90
10390;DHT22;5241;47.830;12.972;2022-09-01T01:08:35;13.10;99.90
10390;DHT22;5241;47.830;12.972;2022-09-01T01:11:13;13.20;99.90
10390;DHT22;5241;47.830;12.972;2022-09-01T01:14:03;13.20;99.90
10390;DHT22;5241;47.830;12.972;2022-09-01T01:16:38;13.20;99.90
10390;DHT22;5241;47.830;12.972;2022-09-01T01:23:05;13.10;99.90
10390;DHT22;5241;47.830;12.972;2022-09-01T01:28:14;13.10;99.90
10390;DHT22;5241;47.830;12.972;2022-09-01T01:30:47;13.10;99.90
10390;DHT22;5241;47.830;12.972;2022-09-01T01:33:22;13.10;99.90
10390;DHT22;5241;47.830;12.972;2022-09-01T01:35:49;13.20;99.90
10390;DHT22;5241;47.830;12.972;2022-09-01T01:38:16;13.10;99.90
10390;DHT22;5241;47.830;12.972;2022-09-01T01:40:43;13.10;99.90
10390;DHT22;5241;47.830;12.972;2022-09-01T01:43:09;13.20;99.90
10390;DHT22;5241;47.830;12.972;2022-09-01T01:45:36;13.30;99.90
10390;DHT22;5241;47.830;12.972;2022-09-01T01:48:02;13.30;99.90
10390;DHT22;5241;47.830;12.972;2022-09-01T01:50:34;13.40;99.90
10390;DHT22;5241;47.830;12.972;2022-09-01T01:53:02;13.40;99.90
10390;DHT22;5241;47.830;12.972;2022-09-01T01:55:29;13.40;99.90
10390;DHT22;5241;47.830;12.972;2022-09-01T01:57:56;13.40;99.90
10390;DHT22;5241;47.830;12.972;2022-09-01T02:00:29;13.40;99.90
10390;DHT22;5241;47.830;12.972;2022-09-01T02:02:57;13.30;99.90
10390;DHT22;5241;47.830;12.972;2022-09-01T02:05:28;13.30;99.90
10390;DHT22;5241;47.830;12.972;2022-09-01T02:08:02;13.30;99.90
10390;DHT22;5241;47.830;12.972;2022-09-01T02:10:39;13.30;99.90
10390;DHT22;5241;47.830;12.972;2022-09-01T02:13:07;13.30;99.90
10390;DHT22;5241;47.830;12.972;2022-09-01T02:15:37;13.30;99.90
10390;DHT22;5241;47.830;12.972;2022-09-01T02:18:10;13.30;99.90
10390;DHT22;5241;47.830;12.972;2022-09-01T02:20:37;13.30;99.90
10390;DHT22;5241;47.830;12.972;2022-09-01T02:23:03;13.20;99.90
10390;DHT22;5241;47.830;12.972;2022-09-01T02:25:38;13.30;99.90
10390;DHT22;5241;47.830;12.972;2022-09-01T02:28:10;13.30;99.90
10390;DHT22;5241;47.830;12.972;2022-09-01T02:30:41;13.30;99.90
10390;DHT22;5241;47.830;12.972;2022-09-01T02:33:07;13.40;99.90
10390;DHT22;5241;47.830;12.972;2022-09-01T02:35:36;13.40;99.90
10390;DHT22;5241;47.830;12.972;2022-09-01T02:38:04;13.40;99.90
10390;DHT22;5241;47.830;12.972;2022-09-01T02:40:30;13.40;99.90
10390;DHT22;5241;47.830;12.972;2022-09-01T02:42:58;13.40;99.90
10390;DHT22;5241;47.830;12.972;2022-09-01T02:45:26;13.40;99.90
10390;DHT22;5241;47.830;12.972;2022-09-01T02:47:52;13.30;99.90
10390;DHT22;5241;47.830;12.972;2022-09-01T02:50:18;13.30;99.90
10390;DHT22;5241;47.830;12.972;2022-09-01T02:52:45;13.40;99.90
10390;DHT22;5241;47.830;12.972;2022-09-01T02:55:13;13.40;99.90
10390;DHT22;5241;47.830;12.972;2022-09-01T02:57:45;13.40;99.90
10390;DHT22;5241;47.830;12.972;2022-09-01T03:00:13;13.40;99.90
10390;DHT22;5241;47.830;12.972;2022-09-01T03:02:50;13.40;99.90
10390;DHT22;5241;47.830;12.972;2022-09-01T03:05:18;13.40;99.90
10390;DHT22;5241;47.830;12.972;2022-09-01T03:07:51;13.40;99.90
10390;DHT22;5241;47.830;12.972;2022-09-01T03:10:28;13.50;99.90
10390;DHT22;5241;47.830;12.972;2022-09-01T03:13:09;13.50;99.90
10390;DHT22;5241;47.830;12.972;2022-09-01T03:15:35;13.50;99.90
10390;DHT22;5241;47.830;12.972;2022-09-01T03:18:03;13.50;99.90
10390;DHT22;5241;47.830;12.972;2022-09-01T03:20:30;13.50;99.90
10390;DHT22;5241;47.830;12.972;2022-09-01T03:23:02;13.50;99.90
10390;DHT22;5241;47.830;12.972;2022-09-01T03:25:28;13.40;99.90
10390;DHT22;5241;47.830;12.972;2022-09-01T03:27:55;13.30;99.90
10390;DHT22;5241;47.830;12.972;2022-09-01T03:30:23;13.30;99.90
10390;DHT22;5241;47.830;12.972;2022-09-01T03:32:48;13.30;99.90
10390;DHT22;5241;47.830;12.972;2022-09-01T03:35:14;13.20;99.90
10390;DHT22;5241;47.830;12.972;2022-09-01T03:37:40;13.20;99.90
10390;DHT22;5241;47.830;12.972;2022-09-01T03:40:09;13.10;99.90
10390;DHT22;5241;47.830;12.972;2022-09-01T03:42:35;13.10;99.90
10390;DHT22;5241;47.830;12.972;2022-09-01T03:45:02;13.10;99.90
10390;DHT22;5241;47.830;12.972;2022-09-01T03:47:41;13.10;99.90
10390;DHT22;5241;47.830;12.972;2022-09-01T03:50:10;13.10;99.90
10390;DHT22;5241;47.830;12.972;2022-09-01T03:52:57;13.10;99.90
10390;DHT22;5241;47.830;12.972;2022-09-01T03:55:31;13.10;99.90
10390;DHT22;5241;47.830;12.972;2022-09-01T03:58:04;13.00;99.90
10390;DHT22;5241;47.830;12.972;2022-09-01T04:00:32;13.10;99.90
10390;DHT22;5241;47.830;12.972;2022-09-01T04:03:01;13.10;99.90
10390;DHT22;5241;47.830;12.972;2022-09-01T04:05:28;13.10;99.90
10390;DHT22;5241;47.830;12.972;2022-09-01T04:07:57;13.10;99.90
10390;DHT22;5241;47.830;12.972;2022-09-01T04:10:25;13.10;99.90
10390;DHT22;5241;47.830;12.972;2022-09-01T04:12:51;13.00;99.90
10390;DHT22;5241;47.830;12.972;2022-09-01T04:15:17;13.00;99.90
10390;DHT22;5241;47.830;12.972;2022-09-01T04:17:46;13.00;99.90
10390;DHT22;5241;47.830;12.972;2022-09-01T04:20:30;13.00;99.90
10390;DHT22;5241;47.830;12.972;2022-09-01T04:23:05;13.00;99.90
10390;DHT22;5241;47.830;12.972;2022-09-01T04:25:36;13.10;99.90
10390;DHT22;5241;47.830;12.972;2022-09-01T04:28:02;13.10;99.90
10390;DHT22;5241;47.830;12.972;2022-09-01T04:30:38;13.10;99.90
10390;DHT22;5241;47.830;12.972;2022-09-01T04:33:05;13.10;99.90
10390;DHT22;5241;47.830;12.972;2022-09-01T04:35:31;13.10;99.90
10390;DHT22;5241;47.830;12.972;2022-09-01T04:37:58;13.10;99.90
10390;DHT22;5241;47.830;12.972;2022-09-01T04:40:24;13.10;99.90
10390;DHT22;5241;47.830;12.972;2022-09-01T04:42:50;13.10;99.90
10390;DHT22;5241;47.830;12.972;2022-09-01T04:45:16;13.10;99.90
10390;DHT22;5241;47.830;12.972;2022-09-01T04:47:46;13.10;99.90
10390;DHT22;5241;47.830;12.972;2022-09-01T04:50:12;13.10;99.90
10390;DHT22;5241;47.830;12.972;2022-09-01T04:52:39;13.10;99.90
10390;DHT22;5241;47.830;12.972;2022-09-01T04:55:07;13.10;99.90
10390;DHT22;5241;47.830;12.972;2022-09-01T04:57:33;13.10;99.90
10390;DHT22;5241;47.830;12.972;2022-09-01T04:59:59;13.10;99.90
10390;DHT22;5241;47.830;12.972;2022-09-01T05:02:25;13.20;99.90
10390;DHT22;5241;47.830;12.972;2022-09-01T05:04:53;13.20;99.90
10390;DHT22;5241;47.830;12.972;2022-09-01T05:07:19;13.20;99.90
10390;DHT22;5241;47.830;12.972;2022-09-01T05:09:45;13.10;99.90
10390;DHT22;5241;47.830;12.972;2022-09-01T05:12:11;13.10;99.90
10390;DHT22;5241;47.830;12.972;2022-09-01T05:14:38;13.20;99.90
10390;DHT22;5241;47.830;12.972;2022-09-01T05:17:06;13.20;99.90
10390;DHT22;5241;47.830;12.972;2022-09-01T05:19:35;13.10;99.90
10390;DHT22;5241;47.830;12.972;2022-09-01T05:22:02;13.10;99.90
10390;DHT22;5241;47.830;12.972;2022-09-01T05:24:29;13.10;99.90
10390;DHT22;5241;47.830;12.972;2022-09-01T05:26:57;13.10;99.90
10390;DHT22;5241;47.830;12.972;2022-09-01T05:29:25;13.20;99.90
10390;DHT22;5241;47.830;12.972;2022-09-01T05:31:52;13.20;99.90
10390;DHT22;5241;47.830;12.972;2022-09-01T05:34:20;13.10;99.90
10390;DHT22;5241;47.830;12.972;2022-09-01T05:36:53;13.20;99.90
10390;DHT22;5241;47.830;12.972;2022-09-01T05:39:19;13.20;99.90
10390;DHT22;5241;47.830;12.972;2022-09-01T05:41:45;13.30;99.90
10390;DHT22;5241;47.830;12.972;2022-09-01T05:44:13;13.40;99.90
10390;DHT22;5241;47.830;12.972;2022-09-01T05:46:40;13.40;99.90
10390;DHT22;5241;47.830;12.972;2022-09-01T05:49:09;13.50;99.90
10390;DHT22;5241;47.830;12.972;2022-09-01T05:51:40;13.60;99.90
10390;DHT22;5241;47.830;12.972;2022-09-01T05:54:07;13.70;99.90
10390;DHT22;5241;47.830;12.972;2022-09-01T05:56:35;13.70;99.90
10390;DHT22;5241;47.830;12.972;2022-09-01T05:59:07;13.80;99.90
10390;DHT22;5241;47.830;12.972;2022-09-01T06:01:34;13.90;99.90
10390;DHT22;5241;47.830;12.972;2022-09-01T06:04:02;14.10;99.90
10390;DHT22;5241;47.830;12.972;2022-09-01T06:06:43;14.20;99.90
10390;DHT22;5241;47.830;12.972;2022-09-01T06:09:11;14.20;99.90
10390;DHT22;5241;47.830;12.972;2022-09-01T06:11:38;14.40;99.90
10390;DHT22;5241;47.830;12.972;2022-09-01T06:14:03;14.70;99.90
10390;DHT22;5241;47.830;12.972;2022-09-01T06:16:30;14.80;99.90
10390;DHT22;5241;47.830;12.972;2022-09-01T06:18:56;15.10;99.90
10390;DHT22;5241;47.830;12.972;2022-09-01T06:21:22;15.40;99.90
10390;DHT22;5241;47.830;12.972;2022-09-01T06:23:50;15.40;99.90
10390;DHT22;5241;47.830;12.972;2022-09-01T06:26:24;15.40;99.90
10390;DHT22;5241;47.830;12.972;2022-09-01T06:28:55;15.60;99.90
10390;DHT22;5241;47.830;12.972;2022-09-01T06:31:22;15.70;99.90
10390;DHT22;5241;47.830;12.972;2022-09-01T06:33:53;16.00;99.90
10390;DHT22;5241;47.830;12.972;2022-09-01T06:36:22;16.30;99.90
10390;DHT22;5241;47.830;12.972;2022-09-01T06:38:49;16.30;99.90
10390;DHT22;5241;47.830;12.972;2022-09-01T06:41:16;16.30;99.90
10390;DHT22;5241;47.830;12.972;2022-09-01T06:43:53;16.40;99.90
10390;DHT22;5241;47.830;12.972;2022-09-01T06:46:22;16.70;99.90
10390;DHT22;5241;47.830;12.972;2022-09-01T06:48:52;16.40;99.90
10390;DHT22;5241;47.830;12.972;2022-09-01T06:51:20;16.30;99.90
10390;DHT22;5241;47.830;12.972;2022-09-01T06:53:48;16.40;99.90
10390;DHT22;5241;47.830;12.972;2022-09-01T06:56:21;16.60;99.90
10390;DHT22;5241;47.830;12.972;2022-09-01T06:58:47;16.60;99.90
10390;DHT22;5241;47.830;12.972;2022-09-01T07:01:17;16.70;99.90
10390;DHT22;5241;47.830;12.972;2022-09-01T07:03:48;16.60;99.90
10390;DHT22;5241;47.830;12.972;2022-09-01T07:06:16;16.60;99.90
10390;DHT22;5241;47.830;12.972;2022-09-01T07:08:43;16.50;99.90
10390;DHT22;5241;47.830;12.972;2022-09-01T07:11:23;16.40;99.90
10390;DHT22;5241;47.830;12.972;2022-09-01T07:13:56;16.40;99.90
10390;DHT22;5241;47.830;12.972;2022-09-01T07:16:24;16.40;99.90
10390;DHT22;5241;47.830;12.972;2022-09-01T07:18:53;16.20;99.90
10390;DHT22;5241;47.830;12.972;2022-09-01T07:21:20;16.00;99.90
10390;DHT22;5241;47.830;12.972;2022-09-01T07:23:46;15.90;99.90
10390;DHT22;5241;47.830;12.972;2022-09-01T07:26:12;16.10;99.90
10390;DHT22;5241;47.830;12.972;2022-09-01T07:28:47;16.00;99.90
10390;DHT22;5241;47.830;12.972;2022-09-01T07:33:45;16.30;99.90
10390;DHT22;5241;47.830;12.972;2022-09-01T07:36:14;16.20;99.90
10390;DHT22;5241;47.830;12.972;2022-09-01T07:38:40;16.10;99.90
10390;DHT22;5241;47.830;12.972;2022-09-01T07:41:07;16.40;99.90
10390;DHT22;5241;47.830;12.972;2022-09-01T07:43:33;16.40;99.90
10390;DHT22;5241;47.830;12.972;2022-09-01T07:46:01;16.40;99.90
10390;DHT22;5241;47.830;12.972;2022-09-01T07:48:29;16.60;99.90
10390;DHT22;5241;47.830;12.972;2022-09-01T07:50:55;16.70;99.90
10390;DHT22;5241;47.830;12.972;2022-09-01T07:53:24;16.80;99.90
10390;DHT22;5241;47.830;12.972;2022-09-01T07:55:52;16.90;99.90
10390;DHT22;5241;47.830;12.972;2022-09-01T07:58:21;16.90;99.90
10390;DHT22;5241;47.830;12.972;2022-09-01T08:00:48;17.30;99.90
10390;DHT22;5241;47.830;12.972;2022-09-01T08:03:16;17.20;99.90
10390;DHT22;5241;47.830;12.972;2022-09-01T08:05:43;17.40;99.90
10390;DHT22;5241;47.830;12.972;2022-09-01T08:08:08;17.80;99.90
10390;DHT22;5241;47.830;12.972;2022-09-01T08:10:38;18.10;99.90
10390;DHT22;5241;47.830;12.972;2022-09-01T08:13:05;18.20;99.90
10390;DHT22;5241;47.830;12.972;2022-09-01T08:15:30;18.30;99.90
10390;DHT22;5241;47.830;12.972;2022-09-01T08:17:56;18.30;99.90
10390;DHT22;5241;47.830;12.972;2022-09-01T08:20:21;18.30;99.90
10390;DHT22;5241;47.830;12.972;2022-09-01T08:22:47;18.40;99.90
10390;DHT22;5241;47.830;12.972;2022-09-01T08:25:13;18.30;99.90
10390;DHT22;5241;47.830;12.972;2022-09-01T08:27:39;18.20;99.90
10390;DHT22;5241;47.830;12.972;2022-09-01T08:30:08;18.30;99.90
10390;DHT22;5241;47.830;12.972;2022-09-01T08:32:35;18.80;99.90
10390;DHT22;5241;47.830;12.972;2022-09-01T08:35:01;19.60;99.90
10390;DHT22;5241;47.830;12.972;2022-09-01T08:37:28;21.00;99.90
10390;DHT22;5241;47.830;12.972;2022-09-01T08:39:54;21.80;99.90
10390;DHT22;5241;47.830;12.972;2022-09-01T08:45:21;22.10;99.90
10390;DHT22;5241;47.830;12.972;2022-09-01T08:47:51;22.20;99.90
10390;DHT22;5241;47.830;12.972;2022-09-01T08:50:18;21.80;99.90
10390;DHT22;5241;47.830;12.972;2022-09-01T08:52:50;21.90;99.90
10390;DHT22;5241;47.830;12.972;2022-09-01T08:55:27;22.10;99.90
10390;DHT22;5241;47.830;12.972;2022-09-01T08:57:56;20.70;99.90
10390;DHT22;5241;47.830;12.972;2022-09-01T09:00:28;20.00;99.90
10390;DHT22;5241;47.830;12.972;2022-09-01T09:06:01;19.40;99.90
10390;DHT22;5241;47.830;12.972;2022-09-01T09:11:39;20.00;99.90
10390;DHT22;5241;47.830;12.972;2022-09-01T09:14:31;20.00;99.90
10390;DHT22;5241;47.830;12.972;2022-09-01T09:16:58;19.50;99.90
10390;DHT22;5241;47.830;12.972;2022-09-01T09:19:33;19.20;99.90
10390;DHT22;5241;47.830;12.972;2022-09-01T09:22:01;19.10;99.90
10390;DHT22;5241;47.830;12.972;2022-09-01T09:24:34;19.20;99.90
10390;DHT22;5241;47.830;12.972;2022-09-01T09:27:27;19.20;99.90
10390;DHT22;5241;47.830;12.972;2022-09-01T09:35:24;20.80;99.90
10390;DHT22;5241;47.830;12.972;2022-09-01T09:37:51;20.70;99.90
10390;DHT22;5241;47.830;12.972;2022-09-01T09:40:26;20.80;99.90
10390;DHT22;5241;47.830;12.972;2022-09-01T09:45:40;22.30;99.90
10390;DHT22;5241;47.830;12.972;2022-09-01T09:48:25;22.50;99.90
10390;DHT22;5241;47.830;12.972;2022-09-01T09:50:51;21.80;99.90
10390;DHT22;5241;47.830;12.972;2022-09-01T09:53:26;22.20;99.90
10390;DHT22;5241;47.830;12.972;2022-09-01T09:58:35;20.80;99.90
10390;DHT22;5241;47.830;12.972;2022-09-01T10:01:40;21.20;99.90
10390;DHT22;5241;47.830;12.972;2022-09-01T10:04:00;22.00;99.90
10390;DHT22;5241;47.830;12.972;2022-09-01T10:09:03;22.10;99.90
10390;DHT22;5241;47.830;12.972;2022-09-01T10:11:39;21.80;99.90
10390;DHT22;5241;47.830;12.972;2022-09-01T10:14:19;21.90;99.90
10390;DHT22;5241;47.830;12.972;2022-09-01T10:16:51;21.80;99.90
10390;DHT22;5241;47.830;12.972;2022-09-01T10:19:19;21.60;99.90
10390;DHT22;5241;47.830;12.972;2022-09-01T10:21:46;21.50;99.90
10390;DHT22;5241;47.830;12.972;2022-09-01T10:24:29;21.30;99.90
10390;DHT22;5241;47.830;12.972;2022-09-01T10:27:10;20.90;99.90
10390;DHT22;5241;47.830;12.972;2022-09-01T10:29:50;20.30;99.90
10390;DHT22;5241;47.830;12.972;2022-09-01T10:32:22;20.00;99.90
10390;DHT22;5241;47.830;12.972;2022-09-01T10:34:49;20.10;99.90
10390;DHT22;5241;47.830;12.972;2022-09-01T10:37:15;20.40;99.90
10390;DHT22;5241;47.830;12.972;2022-09-01T10:42:35;21.50;99.90
10390;DHT22;5241;47.830;12.972;2022-09-01T10:45:00;21.50;99.90
10390;DHT22;5241;47.830;12.972;2022-09-01T10:47:31;21.50;99.90
10390;DHT22;5241;47.830;12.972;2022-09-01T10:50:26;22.40;99.90
10390;DHT22;5241;47.830;12.972;2022-09-01T10:52:55;23.40;99.90
10390;DHT22;5241;47.830;12.972;2022-09-01T10:55:37;24.10;99.90
10390;DHT22;5241;47.830;12.972;2022-09-01T10:58:32;25.60;97.10
10390;DHT22;5241;47.830;12.972;2022-09-01T11:01:00;25.10;95.00
10390;DHT22;5241;47.830;12.972;2022-09-01T11:03:38;24.10;93.60
10390;DHT22;5241;47.830;12.972;2022-09-01T11:06:06;23.10;95.90
10390;DHT22;5241;47.830;12.972;2022-09-01T11:11:15;22.60;97.50
10390;DHT22;5241;47.830;12.972;2022-09-01T11:13:50;22.50;97.30
10390;DHT22;5241;47.830;12.972;2022-09-01T11:16:29;22.00;98.60
10390;DHT22;5241;47.830;12.972;2022-09-01T11:19:15;22.00;99.20
10390;DHT22;5241;47.830;12.972;2022-09-01T11:21:41;22.10;99.90
10390;DHT22;5241;47.830;12.972;2022-09-01T11:27:12;23.60;94.10
10390;DHT22;5241;47.830;12.972;2022-09-01T11:30:02;22.70;94.40
10390;DHT22;5241;47.830;12.972;2022-09-01T11:32:34;21.60;97.70
10390;DHT22;5241;47.830;12.972;2022-09-01T11:35:15;20.90;99.90
10390;DHT22;5241;47.830;12.972;2022-09-01T11:37:41;20.70;98.80
10390;DHT22;5241;47.830;12.972;2022-09-01T11:40:07;21.10;99.00
10390;DHT22;5241;47.830;12.972;2022-09-01T11:42:40;20.70;98.60
10390;DHT22;5241;47.830;12.972;2022-09-01T11:45:23;20.90;97.50
10390;DHT22;5241;47.830;12.972;2022-09-01T11:47:52;21.10;99.90
10390;DHT22;5241;47.830;12.972;2022-09-01T11:53:13;21.50;97.70
10390;DHT22;5241;47.830;12.972;2022-09-01T11:55:45;22.40;96.30
10390;DHT22;5241;47.830;12.972;2022-09-01T11:58:14;23.10;94.10
10390;DHT22;5241;47.830;12.972;2022-09-01T12:00:54;23.70;92.40
10390;DHT22;5241;47.830;12.972;2022-09-01T12:03:28;23.80;94.10
10390;DHT22;5241;47.830;12.972;2022-09-01T12:06:02;24.50;90.20
10390;DHT22;5241;47.830;12.972;2022-09-01T12:08:35;25.00;87.90
10390;DHT22;5241;47.830;12.972;2022-09-01T12:11:07;24.30;86.20
10390;DHT22;5241;47.830;12.972;2022-09-01T12:13:34;23.90;89.00
10390;DHT22;5241;47.830;12.972;2022-09-01T12:16:04;22.20;91.20
10390;DHT22;5241;47.830;12.972;2022-09-01T12:18:33;22.50;92.70
10390;DHT22;5241;47.830;12.972;2022-09-01T12:21:01;23.40;90.50
10390;DHT22;5241;47.830;12.972;2022-09-01T12:25:57;24.10;86.50
10390;DHT22;5241;47.830;12.972;2022-09-01T12:28:26;24.80;83.30
10390;DHT22;5241;47.830;12.972;2022-09-01T12:30:55;25.00;83.90
10390;DHT22;5241;47.830;12.972;2022-09-01T12:33:22;25.50;81.90
10390;DHT22;5241;47.830;12.972;2022-09-01T12:35:48;25.90;82.10
10390;DHT22;5241;47.830;12.972;2022-09-01T12:38:23;25.90;73.40
10390;DHT22;5241;47.830;12.972;2022-09-01T12:40:54;25.40;77.80
10390;DHT22;5241;47.830;12.972;2022-09-01T12:45:52;25.50;76.50
10390;DHT22;5241;47.830;12.972;2022-09-01T12:48:35;25.80;76.40
10390;DHT22;5241;47.830;12.972;2022-09-01T12:51:24;25.90;73.80
10390;DHT22;5241;47.830;12.972;2022-09-01T12:53:53;26.10;73.50
10390;DHT22;5241;47.830;12.972;2022-09-01T12:56:22;26.20;71.50
10390;DHT22;5241;47.830;12.972;2022-09-01T12:58:51;25.80;73.30
10390;DHT22;5241;47.830;12.972;2022-09-01T13:01:31;25.60;76.60
10390;DHT22;5241;47.830;12.972;2022-09-01T13:06:32;26.60;73.70
10390;DHT22;5241;47.830;12.972;2022-09-01T13:08:58;26.80;69.40
10390;DHT22;5241;47.830;12.972;2022-09-01T13:11:23;25.80;71.20
10390;DHT22;5241;47.830;12.972;2022-09-01T13:13:49;25.40;73.20
10390;DHT22;5241;47.830;12.972;2022-09-01T13:16:14;25.40;73.40
10390;DHT22;5241;47.830;12.972;2022-09-01T13:18:42;25.30;72.70
10390;DHT22;5241;47.830;12.972;2022-09-01T13:21:07;26.10;70.90
10390;DHT22;5241;47.830;12.972;2022-09-01T13:23:33;26.20;71.90
10390;DHT22;5241;47.830;12.972;2022-09-01T13:25:59;26.70;70.50
10390;DHT22;5241;47.830;12.972;2022-09-01T13:28:26;26.50;68.40
10390;DHT22;5241;47.830;12.972;2022-09-01T13:30:55;26.60;67.40
10390;DHT22;5241;47.830;12.972;2022-09-01T13:33:23;26.40;70.00
10390;DHT22;5241;47.830;12.972;2022-09-01T13:35:49;26.10;68.40
10390;DHT22;5241;47.830;12.972;2022-09-01T13:38:16;25.60;66.80
10390;DHT22;5241;47.830;12.972;2022-09-01T13:40:43;25.20;68.90
10390;DHT22;5241;47.830;12.972;2022-09-01T13:43:10;24.40;70.70
10390;DHT22;5241;47.830;12.972;2022-09-01T13:45:36;25.10;70.40
10390;DHT22;5241;47.830;12.972;2022-09-01T13:48:02;25.30;71.80
10390;DHT22;5241;47.830;12.972;2022-09-01T13:50:28;25.60;68.60
10390;DHT22;5241;47.830;12.972;2022-09-01T13:52:55;25.80;65.40
10390;DHT22;5241;47.830;12.972;2022-09-01T13:55:24;26.50;67.30
10390;DHT22;5241;47.830;12.972;2022-09-01T13:57:50;26.80;64.50
10390;DHT22;5241;47.830;12.972;2022-09-01T14:00:19;26.30;65.90
10390;DHT22;5241;47.830;12.972;2022-09-01T14:02:50;26.00;64.40
10390;DHT22;5241;47.830;12.972;2022-09-01T14:05:31;25.50;66.80
10390;DHT22;5241;47.830;12.972;2022-09-01T14:07:57;25.50;65.30
10390;DHT22;5241;47.830;12.972;2022-09-01T14:10:27;25.30;65.60
10390;DHT22;5241;47.830;12.972;2022-09-01T14:12:53;25.80;63.80
10390;DHT22;5241;47.830;12.972;2022-09-01T14:15:19;25.40;64.70
10390;DHT22;5241;47.830;12.972;2022-09-01T14:17:47;25.70;64.30
10390;DHT22;5241;47.830;12.972;2022-09-01T14:20:19;26.10;63.40
10390;DHT22;5241;47.830;12.972;2022-09-01T14:22:46;26.70;62.10
10390;DHT22;5241;47.830;12.972;2022-09-01T14:25:11;26.60;60.00
10390;DHT22;5241;47.830;12.972;2022-09-01T14:27:38;25.70;62.30
10390;DHT22;5241;47.830;12.972;2022-09-01T14:30:05;26.30;64.00
10390;DHT22;5241;47.830;12.972;2022-09-01T14:32:31;26.50;63.80
10390;DHT22;5241;47.830;12.972;2022-09-01T14:34:57;26.70;59.50
10390;DHT22;5241;47.830;12.972;2022-09-01T14:37:23;26.20;59.70
10390;DHT22;5241;47.830;12.972;2022-09-01T14:39:53;26.10;62.20
10390;DHT22;5241;47.830;12.972;2022-09-01T14:42:19;25.80;61.30
10390;DHT22;5241;47.830;12.972;2022-09-01T14:44:46;25.80;60.30
10390;DHT22;5241;47.830;12.972;2022-09-01T14:47:13;26.10;61.30
10390;DHT22;5241;47.830;12.972;2022-09-01T14:49:39;26.10;60.80
10390;DHT22;5241;47.830;12.972;2022-09-01T14:52:06;26.00;60.00
10390;DHT22;5241;47.830;12.972;2022-09-01T14:54:37;25.70;61.10
10390;DHT22;5241;47.830;12.972;2022-09-01T14:57:04;25.60;61.60
10390;DHT22;5241;47.830;12.972;2022-09-01T14:59:30;25.80;61.60
10390;DHT22;5241;47.830;12.972;2022-09-01T15:01:55;26.00;59.70
10390;DHT22;5241;47.830;12.972;2022-09-01T15:04:21;26.10;60.30
10390;DHT22;5241;47.830;12.972;2022-09-01T15:06:47;26.30;61.00
10390;DHT22;5241;47.830;12.972;2022-09-01T15:09:12;26.50;59.30
10390;DHT22;5241;47.830;12.972;2022-09-01T15:11:40;26.40;59.40
10390;DHT22;5241;47.830;12.972;2022-09-01T15:14:06;25.60;60.10
10390;DHT22;5241;47.830;12.972;2022-09-01T15:16:33;24.20;63.60
10390;DHT22;5241;47.830;12.972;2022-09-01T15:19:04;23.10;71.30
10390;DHT22;5241;47.830;12.972;2022-09-01T15:21:31;22.00;72.70
10390;DHT22;5241;47.830;12.972;2022-09-01T15:23:59;21.20;76.40
10390;DHT22;5241;47.830;12.972;2022-09-01T15:26:25;21.80;75.60
10390;DHT22;5241;47.830;12.972;2022-09-01T15:28:51;22.80;72.40
10390;DHT22;5241;47.830;12.972;2022-09-01T15:31:19;23.00;72.00
10390;DHT22;5241;47.830;12.972;2022-09-01T15:33:46;23.30;71.60
10390;DHT22;5241;47.830;12.972;2022-09-01T15:36:18;23.30;71.50
10390;DHT22;5241;47.830;12.972;2022-09-01T15:38:44;22.20;73.90
10390;DHT22;5241;47.830;12.972;2022-09-01T15:41:16;21.60;76.40
10390;DHT22;5241;47.830;12.972;2022-09-01T15:43:42;21.10;77.40
10390;DHT22;5241;47.830;12.972;2022-09-01T15:46:07;20.70;79.10
10390;DHT22;5241;47.830;12.972;2022-09-01T15:48:33;20.20;80.40
10390;DHT22;5241;47.830;12.972;2022-09-01T15:53:42;19.80;83.80
10390;DHT22;5241;47.830;12.972;2022-09-01T15:56:08;19.60;85.00
10390;DHT22;5241;47.830;12.972;2022-09-01T15:58:34;19.50;84.60
10390;DHT22;5241;47.830;12.972;2022-09-01T16:01:00;19.50;85.00
10390;DHT22;5241;47.830;12.972;2022-09-01T16:03:26;19.50;87.00
10390;DHT22;5241;47.830;12.972;2022-09-01T16:05:54;19.40;87.30
10390;DHT22;5241;47.830;12.972;2022-09-01T16:08:19;19.30;86.90
10390;DHT22;5241;47.830;12.972;2022-09-01T16:10:46;19.20;87.90
10390;DHT22;5241;47.830;12.972;2022-09-01T16:13:11;19.20;87.70
10390;DHT22;5241;47.830;12.972;2022-09-01T16:15:45;19.10;89.00
10390;DHT22;5241;47.830;12.972;2022-09-01T16:23:45;19.00;90.30
10390;DHT22;5241;47.830;12.972;2022-09-01T16:26:14;18.90;90.50
10390;DHT22;5241;47.830;12.972;2022-09-01T16:28:46;18.90;90.80
10390;DHT22;5241;47.830;12.972;2022-09-01T16:31:14;18.80;91.10
10390;DHT22;5241;47.830;12.972;2022-09-01T16:33:55;18.90;91.20
10390;DHT22;5241;47.830;12.972;2022-09-01T16:36:40;18.80;91.70
10390;DHT22;5241;47.830;12.972;2022-09-01T16:39:30;18.70;92.70
10390;DHT22;5241;47.830;12.972;2022-09-01T16:42:25;18.70;92.50
10390;DHT22;5241;47.830;12.972;2022-09-01T16:47:42;18.40;94.20
10390;DHT22;5241;47.830;12.972;2022-09-01T16:53:42;18.40;95.00
10390;DHT22;5241;47.830;12.972;2022-09-01T16:56:01;18.30;96.00